createdAt,value
2018-09-17T00:00:35.464Z,96910.00
2018-09-17T00:03:05.563Z,96912.00
2018-09-17T00:05:35.652Z,96909.00
2018-09-17T00:08:05.813Z,96906.00
2018-09-17T00:10:35.912Z,96906.00
2018-09-17T00:13:09.085Z,96911.00
2018-09-17T00:15:39.208Z,96898.00
2018-09-17T00:18:09.287Z,96903.00
2018-09-17T00:20:39.364Z,96896.00
2018-09-17T00:23:09.451Z,96900.00
2018-09-17T00:25:39.535Z,96901.00
2018-09-17T00:28:09.620Z,96899.00
2018-09-17T00:30:39.823Z,96897.00
2018-09-17T00:33:09.908Z,96897.00
2018-09-17T00:35:40.137Z,96898.00
2018-09-17T00:38:10.288Z,96895.00
2018-09-17T00:40:40.566Z,96891.00
2018-09-17T00:43:10.632Z,96895.00
2018-09-17T00:45:41.583Z,96893.00
2018-09-17T00:48:11.658Z,96891.00
2018-09-17T00:50:41.772Z,96889.00
2018-09-17T00:53:11.848Z,96888.00
2018-09-17T00:55:41.956Z,96891.00
2018-09-17T00:58:12.108Z,96882.00
2018-09-17T01:00:42.216Z,96878.00
2018-09-17T01:03:12.293Z,96886.00
2018-09-17T01:05:42.392Z,96882.00
2018-09-17T01:08:12.551Z,96885.00
2018-09-17T01:10:42.644Z,96872.00
2018-09-17T01:13:12.928Z,96873.00
2018-09-17T01:15:43.023Z,96875.00
2018-09-17T01:18:13.095Z,96875.00
2018-09-17T01:20:43.224Z,96865.00
2018-09-17T01:23:13.300Z,96870.00
2018-09-17T01:25:43.400Z,96868.00
2018-09-17T01:28:13.460Z,96869.00
2018-09-17T01:30:43.557Z,96865.00
2018-09-17T01:33:13.653Z,96879.00
2018-09-17T01:35:43.720Z,96871.00
2018-09-17T01:38:13.820Z,96871.00
2018-09-17T01:40:43.903Z,96865.00
2018-09-17T01:43:14.040Z,96866.00
2018-09-17T01:45:44.184Z,96866.00
2018-09-17T01:48:14.257Z,96861.00
2018-09-17T01:50:44.336Z,96858.00
2018-09-17T01:53:14.504Z,96860.00
2018-09-17T01:55:44.596Z,96865.00
2018-09-17T01:58:14.696Z,96859.00
2018-09-17T02:00:44.801Z,96856.00
2018-09-17T02:03:14.920Z,96858.00
2018-09-17T02:05:45.002Z,96847.00
2018-09-17T02:08:15.294Z,96856.00
2018-09-17T02:10:45.384Z,96857.00
2018-09-17T02:13:15.556Z,96857.00
2018-09-17T02:15:45.640Z,96852.00
2018-09-17T02:18:15.752Z,96847.00
2018-09-17T02:20:45.835Z,96849.00
2018-09-17T02:23:15.916Z,96851.00
2018-09-17T02:25:46.003Z,96847.00
2018-09-17T02:28:16.100Z,96849.00
2018-09-17T02:30:46.190Z,96846.00
2018-09-17T02:33:16.287Z,96839.00
2018-09-17T02:35:46.353Z,96853.00
2018-09-17T02:38:16.441Z,96844.00
2018-09-17T02:40:46.515Z,96849.00
2018-09-17T02:43:16.602Z,96847.00
2018-09-17T02:45:46.723Z,96843.00
2018-09-17T02:48:16.796Z,96853.00
2018-09-17T02:50:46.892Z,96842.00
2018-09-17T02:53:16.966Z,96837.00
2018-09-17T02:55:47.044Z,96850.00
2018-09-17T02:58:17.209Z,96846.00
2018-09-17T03:00:47.290Z,96841.00
2018-09-17T03:03:17.399Z,96844.00
2018-09-17T03:05:47.512Z,96845.00
2018-09-17T03:08:17.607Z,96846.00
2018-09-17T03:10:47.677Z,96837.00
2018-09-17T03:13:17.840Z,96843.00
2018-09-17T03:15:54.158Z,96835.00
2018-09-17T03:18:41.078Z,96842.00
2018-09-17T03:21:11.160Z,96840.00
2018-09-17T03:23:41.291Z,96843.00
2018-09-17T03:26:11.353Z,96837.00
2018-09-17T03:28:41.556Z,96842.00
2018-09-17T03:31:11.732Z,96849.00
2018-09-17T03:33:41.856Z,96852.00
2018-09-17T03:36:12.001Z,96850.00
2018-09-17T03:38:45.403Z,96847.00
2018-09-17T03:41:16.370Z,96850.00
2018-09-17T03:43:48.064Z,96847.00
2018-09-17T03:46:18.221Z,96839.00
2018-09-17T03:48:48.479Z,96839.00
2018-09-17T03:51:18.604Z,96838.00
2018-09-17T03:53:48.718Z,96839.00
2018-09-17T03:56:18.799Z,96838.00
2018-09-17T03:58:49.005Z,96837.00
2018-09-17T04:01:19.084Z,96852.00
2018-09-17T04:03:49.925Z,96853.00
2018-09-17T04:06:20.314Z,96851.00
2018-09-17T04:08:50.439Z,96840.00
2018-09-17T04:11:20.519Z,96843.00
2018-09-17T04:13:50.615Z,96844.00
2018-09-17T04:16:20.700Z,96840.00
2018-09-17T04:18:50.801Z,96844.00
2018-09-17T04:21:20.901Z,96844.00
2018-09-17T04:23:50.976Z,96843.00
2018-09-17T04:26:21.060Z,96856.00
2018-09-17T04:28:51.152Z,96856.00
2018-09-17T04:31:21.323Z,96854.00
2018-09-17T04:33:51.408Z,96856.00
2018-09-17T04:36:21.496Z,96855.00
2018-09-17T04:38:51.665Z,96855.00
2018-09-17T04:41:21.972Z,96851.00
2018-09-17T04:43:52.039Z,96863.00
2018-09-17T04:46:22.136Z,96854.00
2018-09-17T04:48:52.220Z,96861.00
2018-09-17T04:51:22.288Z,96863.00
2018-09-17T04:53:52.376Z,96860.00
2018-09-17T04:56:22.464Z,96862.00
2018-09-17T04:58:52.550Z,96863.00
2018-09-17T05:01:22.636Z,96868.00
2018-09-17T05:03:52.728Z,96867.00
2018-09-17T05:06:22.816Z,96870.00
2018-09-17T05:08:52.880Z,96877.00
2018-09-17T05:11:23.125Z,96879.00
2018-09-17T05:13:53.220Z,96871.00
2018-09-17T05:16:23.388Z,96877.00
2018-09-17T05:18:53.474Z,96879.00
2018-09-17T05:21:23.609Z,96878.00
2018-09-17T05:23:53.696Z,96883.00
2018-09-17T05:26:23.790Z,96888.00
2018-09-17T05:28:53.961Z,96890.00
2018-09-17T05:31:24.040Z,96890.00
2018-09-17T05:33:54.223Z,96899.00
2018-09-17T05:36:24.288Z,96900.00
2018-09-17T05:38:54.388Z,96897.00
2018-09-17T05:41:24.540Z,96900.00
2018-09-17T05:43:54.597Z,96908.00
2018-09-17T05:46:24.700Z,96918.00
2018-09-17T05:48:54.772Z,96921.00
2018-09-17T05:51:24.870Z,96912.00
2018-09-17T05:53:55.018Z,96919.00
2018-09-17T05:56:25.025Z,96925.00
2018-09-17T05:58:55.210Z,96932.00
2018-09-17T06:01:25.336Z,96931.00
2018-09-17T06:03:56.138Z,96932.00
2018-09-17T06:06:26.531Z,96930.00
2018-09-17T06:08:56.632Z,96936.00
2018-09-17T06:11:26.716Z,96933.00
2018-09-17T06:13:56.916Z,96931.00
2018-09-17T06:16:26.984Z,96944.00
2018-09-17T06:18:57.108Z,96942.00
2018-09-17T06:21:27.238Z,96953.00
2018-09-17T06:23:57.325Z,96958.00
2018-09-17T06:26:27.453Z,96965.00
2018-09-17T06:28:57.560Z,96968.00
2018-09-17T06:31:27.709Z,96968.00
2018-09-17T06:33:57.723Z,96967.00
2018-09-17T06:36:27.789Z,96957.00
2018-09-17T06:38:57.942Z,96959.00
2018-09-17T06:41:28.664Z,96967.00
2018-09-17T06:43:58.680Z,96965.00
2018-09-17T06:46:28.757Z,96968.00
2018-09-17T06:48:58.852Z,96964.00
2018-09-17T06:51:29.034Z,96972.00
2018-09-17T06:53:59.032Z,96975.00
2018-09-17T06:56:29.140Z,96971.00
2018-09-17T06:58:59.237Z,96979.00
2018-09-17T07:01:29.352Z,96973.00
2018-09-17T07:03:59.428Z,96977.00
2018-09-17T07:06:29.529Z,96982.00
2018-09-17T07:08:59.615Z,96989.00
2018-09-17T07:11:29.711Z,96993.00
2018-09-17T07:13:59.785Z,96986.00
2018-09-17T07:16:29.972Z,96993.00
2018-09-17T07:19:00.066Z,96988.00
2018-09-17T07:21:30.761Z,96993.00
2018-09-17T07:24:00.873Z,97000.00
2018-09-17T07:26:31.007Z,97002.00
2018-09-17T07:29:01.706Z,96998.00
2018-09-17T07:31:31.996Z,96988.00
2018-09-17T07:34:02.076Z,96998.00
2018-09-17T07:36:32.298Z,96998.00
2018-09-17T07:39:02.403Z,97005.00
2018-09-17T07:41:32.491Z,97007.00
2018-09-17T07:44:02.564Z,97011.00
2018-09-17T07:46:32.655Z,97006.00
2018-09-17T07:49:02.752Z,97006.00
2018-09-17T07:51:32.965Z,97010.00
2018-09-17T07:54:03.063Z,97011.00
2018-09-17T07:56:33.185Z,97005.00
2018-09-17T07:59:03.293Z,97004.00
2018-09-17T08:01:33.380Z,97005.00
2018-09-17T08:04:03.536Z,96997.00
2018-09-17T08:06:33.659Z,97009.00
2018-09-17T08:09:03.903Z,97004.00
2018-09-17T08:11:33.987Z,97009.00
2018-09-17T08:14:04.164Z,97016.00
2018-09-17T08:16:34.308Z,97004.00
2018-09-17T08:19:04.463Z,97012.00
2018-09-17T08:21:34.568Z,97024.00
2018-09-17T08:24:04.691Z,97021.00
2018-09-17T08:26:34.808Z,97016.00
2018-09-17T08:29:04.969Z,97021.00
2018-09-17T08:31:35.093Z,97027.00
2018-09-17T08:34:05.224Z,97023.00
2018-09-17T08:36:35.301Z,97026.00
2018-09-17T08:39:09.984Z,97018.00
2018-09-17T08:41:40.727Z,97020.00
2018-09-17T08:44:11.656Z,97019.00
2018-09-17T08:46:41.724Z,97012.00
2018-09-17T08:49:11.827Z,97013.00
2018-09-17T08:51:41.932Z,97016.00
2018-09-17T08:54:12.042Z,97018.00
2018-09-17T08:56:50.168Z,97028.00
2018-09-17T08:59:25.416Z,97025.00
2018-09-17T09:03:03.316Z,97026.00
2018-09-17T09:05:39.437Z,97020.00
2018-09-17T09:08:09.622Z,97016.00
2018-09-17T09:10:45.068Z,97016.00
2018-09-17T09:13:20.599Z,97017.00
2018-09-17T09:15:50.704Z,97024.00
2018-09-17T09:18:20.775Z,97017.00
2018-09-17T09:20:50.872Z,97013.00
2018-09-17T09:23:20.952Z,97009.00
2018-09-17T09:25:51.048Z,97013.00
2018-09-17T09:28:21.125Z,97010.00
2018-09-17T09:30:51.368Z,97007.00
2018-09-17T09:33:21.372Z,97002.00
2018-09-17T09:35:51.477Z,97007.00
2018-09-17T09:38:21.553Z,97004.00
2018-09-17T09:40:51.659Z,97005.00
2018-09-17T09:43:21.720Z,97003.00
2018-09-17T09:45:51.793Z,97003.00
2018-09-17T09:48:21.880Z,96993.00
2018-09-17T09:50:51.974Z,96993.00
2018-09-17T09:53:22.077Z,96990.00
2018-09-17T09:55:52.359Z,96990.00
2018-09-17T09:58:22.504Z,96993.00
2018-09-17T10:00:57.904Z,96982.00
2018-09-17T10:03:33.156Z,96988.00
2018-09-17T10:06:03.874Z,96988.00
2018-09-17T10:08:38.087Z,96985.00
2018-09-17T10:11:13.219Z,96983.00
2018-09-17T10:13:48.643Z,96983.00
2018-09-17T10:16:20.109Z,96990.00
2018-09-17T10:18:55.496Z,96980.00
2018-09-17T10:21:25.583Z,96980.00
2018-09-17T10:23:55.668Z,96979.00
2018-09-17T10:26:25.779Z,96974.00
2018-09-17T10:28:55.848Z,96980.00
2018-09-17T10:31:25.964Z,96978.00
2018-09-17T10:33:56.048Z,96977.00
2018-09-17T10:36:26.140Z,96977.00
2018-09-17T10:38:56.217Z,96986.00
2018-09-17T10:41:26.293Z,96974.00
2018-09-17T10:43:56.376Z,96975.00
2018-09-17T10:46:26.484Z,96961.00
2018-09-17T10:48:56.559Z,96970.00
2018-09-17T10:51:26.675Z,96967.00
2018-09-17T10:53:56.752Z,96968.00
2018-09-17T10:56:26.844Z,96963.00
2018-09-17T10:58:56.944Z,96976.00
2018-09-17T11:01:27.024Z,96963.00
2018-09-17T11:03:57.112Z,96967.00
2018-09-17T11:06:27.229Z,96965.00
2018-09-17T11:08:57.300Z,96960.00
2018-09-17T11:11:27.388Z,96972.00
2018-09-17T11:13:57.480Z,96965.00
2018-09-17T11:16:27.560Z,96960.00
2018-09-17T11:18:57.650Z,96959.00
2018-09-17T11:21:27.740Z,96960.00
2018-09-17T11:23:57.853Z,96958.00
2018-09-17T11:26:27.956Z,96957.00
2018-09-17T11:28:58.036Z,96958.00
2018-09-17T11:31:28.183Z,96954.00
2018-09-17T11:33:58.240Z,96949.00
2018-09-17T11:36:28.360Z,96938.00
2018-09-17T11:38:58.440Z,96935.00
2018-09-17T11:41:28.512Z,96934.00
2018-09-17T11:43:58.664Z,96933.00
2018-09-17T11:46:28.740Z,96933.00
2018-09-17T11:48:58.840Z,96937.00
2018-09-17T11:51:28.916Z,96933.00
2018-09-17T11:53:59.025Z,96935.00
2018-09-17T11:56:29.168Z,96932.00
2018-09-17T11:58:59.295Z,96925.00
2018-09-17T12:01:34.620Z,96930.00
2018-09-17T12:04:09.836Z,96919.00
2018-09-17T12:06:45.183Z,96920.00
2018-09-17T12:09:15.383Z,96919.00
2018-09-17T12:11:45.431Z,96917.00
2018-09-17T12:14:15.524Z,96915.00
2018-09-17T12:16:45.613Z,96913.00
2018-09-17T12:19:15.852Z,96905.00
2018-09-17T12:21:45.923Z,96908.00
2018-09-17T12:24:16.048Z,96916.00
2018-09-17T12:26:46.112Z,96917.00
2018-09-17T12:29:16.200Z,96917.00
2018-09-17T12:31:46.289Z,96911.00
2018-09-17T12:34:16.380Z,96911.00
2018-09-17T12:36:46.444Z,96899.00
2018-09-17T12:39:16.554Z,96900.00
2018-09-17T12:41:46.641Z,96900.00
2018-09-17T12:44:16.728Z,96889.00
2018-09-17T12:46:46.828Z,96890.00
2018-09-17T12:49:16.898Z,96887.00
2018-09-17T12:51:46.996Z,96879.00
2018-09-17T12:54:17.100Z,96884.00
2018-09-17T12:56:47.267Z,96880.00
2018-09-17T12:59:17.343Z,96876.00
2018-09-17T13:01:47.466Z,96875.00
2018-09-17T13:04:17.579Z,96887.00
2018-09-17T13:06:47.664Z,96873.00
2018-09-17T13:09:17.759Z,96878.00
2018-09-17T13:11:48.058Z,96875.00
2018-09-17T13:14:18.168Z,96868.00
2018-09-17T13:16:48.272Z,96863.00
2018-09-17T13:19:18.384Z,96871.00
2018-09-17T13:21:48.508Z,96872.00
2018-09-17T13:24:18.620Z,96864.00
2018-09-17T13:26:48.711Z,96863.00
2018-09-17T13:29:18.772Z,96870.00
2018-09-17T13:31:48.928Z,96857.00
2018-09-17T13:34:18.984Z,96858.00
2018-09-17T13:36:49.137Z,96865.00
2018-09-17T13:39:19.320Z,96857.00
2018-09-17T13:41:49.419Z,96862.00
2018-09-17T13:44:19.573Z,96852.00
2018-09-17T13:46:49.665Z,96857.00
2018-09-17T13:49:20.058Z,96863.00
2018-09-17T13:51:50.133Z,96857.00
2018-09-17T13:54:20.224Z,96852.00
2018-09-17T13:56:50.291Z,96849.00
2018-09-17T13:59:20.424Z,96849.00
2018-09-17T14:01:50.560Z,96849.00
2018-09-17T14:04:20.637Z,96855.00
2018-09-17T14:06:50.693Z,96857.00
2018-09-17T14:09:20.816Z,96849.00
2018-09-17T14:11:50.876Z,96854.00
2018-09-17T14:14:20.954Z,96858.00
2018-09-17T14:16:51.062Z,96847.00
2018-09-17T14:19:21.149Z,96847.00
2018-09-17T14:21:51.252Z,96847.00
2018-09-17T14:24:21.337Z,96838.00
2018-09-17T14:26:51.433Z,96848.00
2018-09-17T14:29:21.657Z,96842.00
2018-09-17T14:31:57.040Z,96843.00
2018-09-17T14:34:27.136Z,96851.00
2018-09-17T14:36:57.216Z,96847.00
2018-09-17T14:39:27.387Z,96844.00
2018-09-17T14:41:57.505Z,96832.00
2018-09-17T14:44:27.608Z,96834.00
2018-09-17T14:46:57.699Z,96837.00
2018-09-17T14:49:27.768Z,96839.00
2018-09-17T14:51:57.910Z,96843.00
2018-09-17T14:54:27.990Z,96836.00
2018-09-17T14:56:58.069Z,96832.00
2018-09-17T14:59:28.145Z,96831.00
2018-09-17T15:01:58.228Z,96822.00
2018-09-17T15:04:28.486Z,96822.00
2018-09-17T15:06:58.496Z,96829.00
2018-09-17T15:09:28.617Z,96826.00
2018-09-17T15:11:58.813Z,96835.00
2018-09-17T15:14:29.100Z,96824.00
2018-09-17T15:16:59.056Z,96829.00
2018-09-17T15:19:29.142Z,96834.00
2018-09-17T15:21:59.255Z,96829.00
2018-09-17T15:24:29.338Z,96830.00
2018-09-17T15:26:59.449Z,96828.00
2018-09-17T15:29:29.563Z,96830.00
2018-09-17T15:31:59.780Z,96816.00
2018-09-17T15:34:29.935Z,96819.00
2018-09-17T15:36:59.960Z,96821.00
2018-09-17T15:39:30.079Z,96832.00
2018-09-17T15:42:00.137Z,96825.00
2018-09-17T15:44:30.305Z,96820.00
2018-09-17T15:47:00.348Z,96825.00
2018-09-17T15:49:30.413Z,96819.00
2018-09-17T15:52:00.587Z,96811.00
2018-09-17T15:54:35.052Z,96815.00
2018-09-17T15:57:05.142Z,96816.00
2018-09-17T15:59:35.230Z,96819.00
2018-09-17T16:02:05.329Z,96826.00
2018-09-17T16:04:35.412Z,96827.00
2018-09-17T16:07:05.532Z,96829.00
2018-09-17T16:09:35.643Z,96831.00
2018-09-17T16:12:05.729Z,96828.00
2018-09-17T16:14:35.808Z,96830.00
2018-09-17T16:17:06.013Z,96830.00
2018-09-17T16:19:36.133Z,96832.00
2018-09-17T16:22:06.294Z,96818.00
2018-09-17T16:24:36.400Z,96812.00
2018-09-17T16:27:06.553Z,96828.00
2018-09-17T16:29:36.675Z,96821.00
2018-09-17T16:32:06.790Z,96830.00
2018-09-17T16:34:36.887Z,96828.00
2018-09-17T16:37:07.137Z,96833.00
2018-09-17T16:39:37.220Z,96832.00
2018-09-17T16:42:07.414Z,96840.00
2018-09-17T16:44:38.820Z,96840.00
2018-09-17T16:47:08.963Z,96834.00
2018-09-17T16:49:39.128Z,96838.00
2018-09-17T16:52:09.218Z,96839.00
2018-09-17T16:54:39.323Z,96844.00
2018-09-17T16:57:09.545Z,96840.00
2018-09-17T16:59:39.712Z,96841.00
2018-09-17T17:02:09.816Z,96847.00
2018-09-17T17:04:39.967Z,96842.00
2018-09-17T17:07:10.042Z,96850.00
2018-09-17T17:09:40.129Z,96855.00
2018-09-17T17:12:10.480Z,96853.00
2018-09-17T17:14:40.639Z,96848.00
2018-09-17T17:17:11.666Z,96850.00
2018-09-17T17:19:42.522Z,96845.00
2018-09-17T17:22:12.806Z,96847.00
2018-09-17T17:24:42.885Z,96846.00
2018-09-17T17:27:13.068Z,96851.00
2018-09-17T17:29:43.168Z,96844.00
2018-09-17T17:32:13.385Z,96849.00
2018-09-17T17:34:43.478Z,96852.00
2018-09-17T17:37:13.640Z,96853.00
2018-09-17T17:39:43.885Z,96856.00
2018-09-17T17:42:13.860Z,96859.00
2018-09-17T17:44:44.010Z,96859.00
2018-09-17T17:47:14.256Z,96872.00
2018-09-17T17:49:44.364Z,96869.00
2018-09-17T17:52:14.689Z,96871.00
2018-09-17T17:54:44.791Z,96872.00
2018-09-17T17:57:14.939Z,96873.00
2018-09-17T17:59:45.125Z,96871.00
2018-09-17T18:02:15.276Z,96871.00
2018-09-17T18:04:45.396Z,96884.00
2018-09-17T18:07:15.564Z,96876.00
2018-09-17T18:09:45.684Z,96874.00
2018-09-17T18:12:15.808Z,96876.00
2018-09-17T18:14:45.978Z,96881.00
2018-09-17T18:17:16.116Z,96872.00
2018-09-17T18:19:46.204Z,96873.00
2018-09-17T18:22:16.362Z,96882.00
2018-09-17T18:24:46.463Z,96883.00
2018-09-17T18:27:16.665Z,96888.00
2018-09-17T18:29:46.780Z,96890.00
2018-09-17T18:32:16.853Z,96888.00
2018-09-17T18:34:46.941Z,96887.00
2018-09-17T18:37:17.056Z,96883.00
2018-09-17T18:39:47.325Z,96885.00
2018-09-17T18:42:17.268Z,96885.00
2018-09-17T18:44:47.425Z,96890.00
2018-09-17T18:47:17.500Z,96887.00
2018-09-17T18:49:47.604Z,96883.00
2018-09-17T18:52:18.252Z,96893.00
2018-09-17T18:54:48.372Z,96888.00
2018-09-17T18:57:18.604Z,96887.00
2018-09-17T18:59:48.642Z,96891.00
2018-09-17T19:02:18.882Z,96894.00
2018-09-17T19:04:49.056Z,96886.00
2018-09-17T19:07:19.184Z,96900.00
2018-09-17T19:09:50.618Z,96895.00
2018-09-17T19:12:21.365Z,96889.00
2018-09-17T19:14:56.686Z,96890.00
2018-09-17T19:17:32.037Z,96886.00
2018-09-17T19:20:02.257Z,96891.00
2018-09-17T19:22:37.632Z,96893.00
2018-09-17T19:25:07.756Z,96898.00
2018-09-17T19:27:43.054Z,96893.00
2018-09-17T19:30:13.444Z,96898.00
2018-09-17T19:32:44.267Z,96898.00
2018-09-17T19:35:14.384Z,96895.00
2018-09-17T19:37:49.860Z,96895.00
2018-09-17T19:40:22.244Z,96891.00
2018-09-17T19:42:52.169Z,96894.00
2018-09-17T19:45:27.472Z,96886.00
2018-09-17T19:47:57.669Z,96889.00
2018-09-17T19:50:32.890Z,96887.00
2018-09-17T19:53:02.904Z,96891.00
2018-09-17T19:55:32.996Z,96899.00
2018-09-17T19:58:08.478Z,96895.00
2018-09-17T20:00:40.230Z,96896.00
2018-09-17T20:03:10.821Z,96889.00
2018-09-17T20:05:46.236Z,96897.00
2018-09-17T20:08:16.422Z,96896.00
2018-09-17T20:10:46.528Z,96895.00
2018-09-17T20:13:16.624Z,96894.00
2018-09-17T20:15:46.732Z,96887.00
2018-09-17T20:18:16.831Z,96905.00
2018-09-17T20:20:46.901Z,96900.00
2018-09-17T20:23:17.161Z,96890.00
2018-09-17T20:25:47.128Z,96898.00
2018-09-17T20:28:17.236Z,96895.00
2018-09-17T20:30:47.319Z,96892.00
2018-09-17T20:33:17.509Z,96894.00
2018-09-17T20:35:47.664Z,96901.00
2018-09-17T20:38:17.836Z,96889.00
2018-09-17T20:40:47.857Z,96888.00
2018-09-17T20:43:17.956Z,96887.00
2018-09-17T20:45:48.123Z,96882.00
2018-09-17T20:48:18.299Z,96891.00
2018-09-17T20:50:48.488Z,96884.00
2018-09-17T20:53:18.581Z,96882.00
2018-09-17T20:55:48.759Z,96877.00
2018-09-17T20:58:18.820Z,96876.00
2018-09-17T21:00:48.993Z,96878.00
2018-09-17T21:03:19.008Z,96874.00
2018-09-17T21:05:49.100Z,96874.00
2018-09-17T21:08:19.181Z,96871.00
2018-09-17T21:10:49.318Z,96875.00
2018-09-17T21:13:19.409Z,96873.00
2018-09-17T21:15:49.500Z,96867.00
2018-09-17T21:18:19.620Z,96871.00
2018-09-17T21:20:49.764Z,96863.00
2018-09-17T21:23:19.856Z,96871.00
2018-09-17T21:25:49.996Z,96869.00
2018-09-17T21:28:20.111Z,96870.00
2018-09-17T21:30:50.270Z,96856.00
2018-09-17T21:33:20.321Z,96858.00
2018-09-17T21:35:50.528Z,96863.00
2018-09-17T21:38:20.596Z,96867.00
2018-09-17T21:40:50.848Z,96869.00
2018-09-17T21:43:20.980Z,96863.00
2018-09-17T21:45:51.130Z,96862.00
2018-09-17T21:48:21.225Z,96866.00
2018-09-17T21:50:51.373Z,96863.00
2018-09-17T21:53:21.483Z,96862.00
2018-09-17T21:55:51.588Z,96865.00
2018-09-17T21:58:21.657Z,96872.00
2018-09-17T22:00:56.977Z,96861.00
2018-09-17T22:03:27.284Z,96856.00
2018-09-17T22:05:57.859Z,96857.00
2018-09-17T22:08:28.252Z,96858.00
2018-09-17T22:10:58.351Z,96859.00
2018-09-17T22:13:28.991Z,96859.00
2018-09-17T22:15:59.098Z,96854.00
2018-09-17T22:18:29.149Z,96861.00
2018-09-17T22:21:05.772Z,96866.00
2018-09-17T22:23:35.936Z,96851.00
2018-09-17T22:26:06.019Z,96858.00
2018-09-17T22:28:36.100Z,96844.00
2018-09-17T22:31:06.908Z,96854.00
2018-09-17T22:33:37.004Z,96847.00
2018-09-17T22:36:07.140Z,96837.00
2018-09-17T22:38:37.216Z,96842.00
2018-09-17T22:41:07.347Z,96839.00
2018-09-17T22:43:37.443Z,96843.00
2018-09-17T22:46:07.607Z,96840.00
2018-09-17T22:48:37.688Z,96836.00
2018-09-17T22:51:08.276Z,96834.00
2018-09-17T22:53:38.364Z,96830.00
2018-09-17T22:56:08.482Z,96829.00
2018-09-17T22:58:38.612Z,96833.00
2018-09-17T23:01:08.787Z,96821.00
2018-09-17T23:03:38.967Z,96827.00
2018-09-17T23:06:09.043Z,96826.00
2018-09-17T23:08:39.181Z,96820.00
2018-09-17T23:11:09.271Z,96826.00
2018-09-17T23:13:39.403Z,96822.00
2018-09-17T23:16:09.483Z,96818.00
2018-09-17T23:18:39.580Z,96816.00
2018-09-17T23:21:09.683Z,96818.00
2018-09-17T23:23:39.803Z,96818.00
2018-09-17T23:26:09.899Z,96813.00
2018-09-17T23:28:40.010Z,96807.00
2018-09-17T23:31:10.176Z,96811.00
2018-09-17T23:33:40.245Z,96806.00
2018-09-17T23:36:10.339Z,96807.00
2018-09-17T23:38:40.409Z,96802.00
2018-09-17T23:41:10.480Z,96798.00
2018-09-17T23:43:40.622Z,96804.00
2018-09-17T23:46:11.404Z,96801.00
2018-09-17T23:48:41.472Z,96810.00
2018-09-17T23:51:11.605Z,96807.00
2018-09-17T23:53:41.676Z,96802.00
2018-09-17T23:56:12.023Z,96801.00
2018-09-17T23:58:42.180Z,96804.00
